Latest Weather Observations for Montague Island

IDN60901

Issued at 9:55 pm EST Friday 29 August 2014 (issued every 10 minutes, with the page automatically refreshed every 10 minutes)

About weather observations | Map of Canberra area stations | Latest observations for Canberra area | Other Formats
Station Details ID: 069017 Name: MONTAGUE ISLAND LIGHTHOUSE Lat: -36.25 Lon: 150.23 Height: 52.0 m
Data from the previous 72 hours. | See also: Recent months at Montague Island
Date/Time
EST
Tmp

°C
App
Tmp
°C
Dew
Point
°C
Rel
Hum
%
Delta-T

°C
Wind Press
QNH
hPa
Press
MSL
hPa
Rain
since
9 am
mm
Dir
 
Spd
km/h
Gust
km/h
Spd
kts
Gust
kts
29/09:30pm 13.9 6.2 7.2 64 3.3 S 37 46 20 25 1027.1 - 0.0
29/09:00pm 14.0 6.3 7.1 63 3.3 S 37 44 20 24 1027.3 1027.3 0.0
29/08:30pm 14.2 5.6 6.6 60 3.7 S 41 48 22 26 1027.3 - 0.0
29/08:00pm 14.3 6.1 8.0 66 3.1 SSE 41 54 22 29 1027.1 1027.1 0.0
29/07:30pm 14.2 5.8 7.5 64 3.3 S 41 50 22 27 1027.1 - 0.0
29/07:00pm 14.2 6.1 8.6 69 2.8 S 41 48 22 26 1026.9 1026.9 0.0
29/06:30pm 14.3 6.2 8.7 69 2.8 S 41 52 22 28 1026.7 - 0.0
29/06:00pm 14.5 6.9 8.9 69 2.8 SSE 39 52 21 28 1026.4 1026.4 0.0
29/05:30pm 14.5 6.9 8.9 69 2.8 S 39 48 21 26 1026.3 - 0.0
29/05:00pm 14.6 6.5 8.8 68 2.9 S 41 50 22 27 1026.0 1026.0 0.0
29/04:30pm 14.9 8.2 9.7 71 2.7 S 35 44 19 24 1025.9 - 0.0
29/04:00pm 15.0 8.3 9.8 71 2.7 S 35 46 19 25 1025.9 1025.9 0.0
29/03:30pm 15.2 8.9 9.6 69 2.9 S 33 44 18 24 1025.8 - 0.0
29/03:00pm 14.9 9.6 11.1 78 2.0 SSW 30 37 16 20 1026.0 1026.0 0.0
29/02:30pm 15.3 10.8 11.3 77 2.1 S 26 39 14 21 1026.2 - 0.0
29/02:00pm 15.4 11.1 10.8 74 2.4 S 24 39 13 21 1026.5 1026.5 0.0
29/01:30pm 14.2 10.0 11.0 81 1.7 S 24 30 13 16 1026.8 - 0.0
29/01:00pm 15.2 8.4 10.6 74 2.4 S 37 46 20 25 1026.7 1026.7 0.0
29/12:30pm 16.3 10.9 10.8 70 2.9 SSW 30 37 16 20 1026.7 - 0.0
29/12:00pm 15.6 10.9 10.6 72 2.6 SSW 26 33 14 18 1027.3 1027.3 0.0
29/11:30am 16.0 12.4 10.5 70 2.9 SW 20 28 11 15 1027.6 - 0.0
29/11:00am 14.5 10.2 10.7 78 2.0 SW 24 32 13 17 1027.7 1027.7 0.0
29/10:30am 14.4 8.8 10.2 76 2.2 SW 30 35 16 19 1027.7 - 0.0
29/10:00am 14.8 10.5 10.6 76 2.2 SW 24 30 13 16 1027.8 1027.8 0.0
29/09:30am 14.2 9.5 9.4 73 2.5 SW 24 30 13 16 1028.1 - 0.0
29/09:00am 14.0 10.2 9.8 76 2.2 SSW 20 26 11 14 1028.2 1028.2 0.4
29/08:30am 13.3 9.6 10.1 81 1.7 SW 20 26 11 14 1028.2 - 0.4
29/08:00am 13.0 9.4 10.4 84 1.3 WSW 20 24 11 13 1028.0 1028.0 0.4
29/07:30am 11.9 8.7 9.8 87 1.1 WSW 17 22 9 12 1028.0 - 0.4
29/07:00am 11.9 8.7 9.8 87 1.1 WSW 17 20 9 11 1027.8 1027.8 0.4
29/06:30am 12.2 8.6 9.8 85 1.2 WSW 19 22 10 12 1027.5 - 0.4
29/06:00am 12.1 8.5 9.7 85 1.2 SW 19 22 10 12 1027.1 1027.1 0.4
29/05:30am 12.2 8.4 9.8 85 1.2 SW 20 22 11 12 1026.9 - 0.4
29/05:00am 12.2 9.1 10.3 88 1.0 SW 17 20 9 11 1026.9 1026.9 0.4
29/04:30am 12.1 9.0 10.2 88 1.0 SW 17 20 9 11 1026.9 - 0.4
29/04:00am 12.1 10.1 10.3 89 0.9 WSW 11 15 6 8 1026.9 1026.9 0.4
29/03:30am 12.3 10.0 10.5 89 0.9 WSW 13 15 7 8 1027.1 - 0.4
29/03:00am 12.2 10.3 10.4 89 0.9 WSW 11 13 6 7 1027.1 1027.1 0.4
29/02:30am 12.0 10.4 10.2 89 0.9 WSW 9 13 5 7 1027.1 - 0.4
29/02:00am 12.2 10.7 10.6 90 0.8 WSW 9 11 5 6 1027.4 1027.4 0.4
29/01:30am 12.4 11.0 11.0 91 0.7 W 9 11 5 6 1027.7 - 0.4
29/01:00am 12.7 11.3 10.9 89 0.9 WSW 9 11 5 6 1028.0 1028.0 0.4
29/12:30am 13.0 11.1 10.5 85 1.3 SW 11 15 6 8 1028.2 - 0.4
29/12:00am 13.1 11.6 10.5 84 1.3 SSW 9 11 5 6 1028.5 1028.5 0.4
 
Date/Time
EST
Tmp

°C
App
Tmp
°C
Dew
Point
°C
Rel
Hum
%
Delta-T

°C
Wind Press
QNH
hPa
Press
MSL
hPa
Rain
since
9 am
mm
Dir
 
Spd
km/h
Gust
km/h
Spd
kts
Gust
kts
28/11:30pm 13.5 11.9 10.3 81 1.7 SE 9 13 5 7 1028.5 - 0.4
28/11:00pm 13.1 11.3 10.8 86 1.2 S 11 15 6 8 1028.6 1028.6 0.4
28/10:30pm 13.3 11.3 11.4 88 1.0 SW 13 15 7 8 1028.7 - 0.4
28/10:00pm 13.1 11.3 10.8 86 1.2 SW 11 13 6 7 1028.9 1028.9 0.4
28/09:30pm 14.0 12.9 10.0 77 2.1 S 6 11 3 6 1029.0 - 0.4
28/09:00pm 14.3 12.6 8.5 68 2.9 SSE 7 9 4 5 1029.0 1029.0 0.4
28/08:30pm 14.4 12.8 8.6 68 2.9 ESE 7 9 4 5 1028.9 - 0.4
28/08:00pm 14.3 12.6 8.5 68 2.9 ESE 7 9 4 5 1028.8 1028.8 0.4
28/07:30pm 14.3 12.4 8.9 70 2.7 ESE 9 13 5 7 1028.7 - 0.4
28/07:00pm 14.3 12.0 8.9 70 2.7 ESE 11 15 6 8 1028.6 1028.6 0.4
28/06:30pm 14.4 12.5 10.4 77 2.1 SSE 11 15 6 8 1028.5 - 0.4
28/06:00pm 14.3 12.5 10.7 79 1.9 SE 11 15 6 8 1028.4 1028.4 0.4
28/05:30pm 14.2 11.9 10.6 79 1.9 SE 13 17 7 9 1028.2 - 0.4
28/05:00pm 14.4 11.8 10.6 78 2.0 SE 15 19 8 10 1028.0 1028.0 0.4
28/04:30pm 14.6 12.1 11.0 79 1.9 SSE 15 19 8 10 1027.8 - 0.4
28/04:00pm 14.8 11.5 11.0 78 2.0 SSE 19 24 10 13 1027.6 1027.6 0.4
28/03:30pm 15.2 11.9 11.0 76 2.2 SSE 19 22 10 12 1027.7 - 0.4
28/03:00pm 15.2 12.1 10.4 73 2.5 SSE 17 20 9 11 1027.8 1027.8 0.4
28/02:30pm 15.5 12.9 10.7 73 2.5 SSE 15 19 8 10 1027.9 - 0.4
28/02:00pm 15.3 11.4 12.2 82 1.7 SSE 24 30 13 16 1027.9 1027.9 0.2
28/01:30pm 15.2 11.3 12.0 81 1.7 S 24 32 13 17 1027.9 - 0.2
28/01:00pm 14.9 11.3 11.7 81 1.7 S 22 28 12 15 1028.2 1028.2 0.2
28/12:30pm 14.4 11.1 11.6 83 1.5 S 20 24 11 13 1028.5 - 0.2
28/12:00pm 14.5 10.7 11.1 80 1.8 SSW 22 28 12 15 1028.8 1028.8 0.2
28/11:30am 15.2 11.1 11.4 78 2.0 SSW 24 30 13 16 1029.0 - 0.2
28/11:00am 15.0 11.3 11.6 80 1.8 SW 22 28 12 15 1029.3 1029.4 0.2
28/10:30am 13.9 9.4 9.9 77 2.1 SSW 24 30 13 16 1029.5 - 0.2
28/10:00am 13.0 8.1 9.8 81 1.6 SSW 26 32 14 17 1029.5 1029.6 0.2
28/09:30am 13.2 8.0 10.2 82 1.6 SW 28 35 15 19 1029.5 - 0.2
28/09:00am 11.8 6.3 9.2 84 1.3 SW 28 33 15 18 1029.4 1029.5 6.4
28/08:30am 12.9 7.0 9.0 77 2.0 SW 30 39 16 21 1029.1 - 5.8
28/08:00am 12.3 6.4 9.0 80 1.6 SW 30 35 16 19 1029.2 1029.3 5.8
28/07:30am 12.6 7.3 8.3 75 2.1 SW 26 32 14 17 1029.0 - 5.0
28/07:00am 12.6 6.8 8.1 74 2.2 SW 28 35 15 19 1028.6 1028.6 5.0
28/06:30am 12.6 6.5 8.1 74 2.2 SW 30 37 16 20 1028.2 - 5.0
28/06:00am 12.6 6.8 8.1 74 2.2 SW 28 33 15 18 1028.0 1028.0 5.0
28/05:30am 12.6 6.5 8.1 74 2.2 SW 30 33 16 18 1027.7 - 5.0
28/05:00am 12.5 7.1 8.2 75 2.1 SW 26 32 14 17 1027.5 1027.5 5.0
28/04:30am 12.6 6.6 8.5 76 2.0 SW 30 35 16 19 1027.4 - 5.0
28/04:00am 12.9 7.3 8.6 75 2.1 SW 28 33 15 18 1027.5 1027.5 5.0
28/03:30am 12.7 7.4 8.4 75 2.1 SW 26 33 14 18 1027.6 - 5.0
28/03:00am 12.7 6.7 8.6 76 2.0 SW 30 37 16 20 1027.5 1027.5 5.0
28/02:30am 12.8 7.2 8.9 77 2.0 SW 28 33 15 18 1027.7 - 5.0
28/02:00am 12.8 7.3 9.1 78 1.9 SW 28 32 15 17 1027.8 1027.8 5.0
28/01:30am 12.9 7.8 9.2 78 1.9 SW 26 30 14 16 1028.1 - 5.0
28/01:00am 12.7 7.6 9.3 80 1.7 SW 26 30 14 16 1028.3 1028.3 5.0
28/12:30am 12.8 8.2 9.6 81 1.6 SW 24 30 13 16 1028.4 - 5.0
28/12:00am 12.8 9.0 9.8 82 1.5 SW 20 26 11 14 1028.5 1028.5 5.0
 
Date/Time
EST
Tmp

°C
App
Tmp
°C
Dew
Point
°C
Rel
Hum
%
Delta-T

°C
Wind Press
QNH
hPa
Press
MSL
hPa
Rain
since
9 am
mm
Dir
 
Spd
km/h
Gust
km/h
Spd
kts
Gust
kts
27/11:30pm 12.9 8.4 9.9 82 1.5 SW 24 30 13 16 1028.5 - 5.0
27/11:00pm 13.2 9.4 9.1 76 2.1 SSW 19 28 10 15 1028.6 1028.6 5.0
27/10:30pm 14.1 9.9 7.6 65 3.2 SSE 19 24 10 13 1028.8 - 5.0
27/10:00pm 14.4 9.6 7.2 62 3.5 SSE 22 28 12 15 1028.6 1028.6 5.0
27/09:30pm 14.5 9.9 8.0 65 3.2 SE 22 26 12 14 1028.6 - 5.0
27/09:00pm 14.5 9.4 7.8 64 3.3 SSE 24 28 13 15 1028.7 1028.7 5.0
27/08:30pm 14.5 9.5 8.0 65 3.2 SE 24 30 13 16 1028.7 - 5.0
27/08:00pm 14.6 9.7 8.3 66 3.1 SE 24 28 13 15 1028.8 1028.8 5.0
27/07:30pm 14.6 10.1 8.5 67 3.1 SE 22 28 12 15 1028.7 - 5.0
27/07:00pm 14.4 10.0 9.0 70 2.7 SE 22 26 12 14 1028.4 1028.4 5.0
27/06:30pm 14.5 9.8 9.1 70 2.8 SE 24 28 13 15 1028.2 - 5.0
27/06:00pm 14.7 10.0 9.3 70 2.8 SE 24 30 13 16 1028.1 1028.1 5.0
27/05:30pm 14.5 10.3 9.9 74 2.4 SE 22 26 12 14 1027.9 - 5.0
27/05:00pm 14.5 10.7 9.7 73 2.5 SE 20 24 11 13 1027.8 1027.8 5.0
27/04:30pm 14.5 10.9 9.7 73 2.5 SE 19 24 10 13 1027.6 - 5.0
27/04:00pm 14.6 10.9 10.0 74 2.4 SE 20 24 11 13 1027.5 1027.5 5.0
27/03:30pm 13.9 11.4 10.9 82 1.6 SE 15 19 8 10 1027.5 - 5.0
27/03:00pm 14.8 8.6 10.2 74 2.4 SE 33 41 18 22 1027.5 1027.5 5.0
27/02:30pm 15.6 11.2 10.4 71 2.7 SE 24 30 13 16 1027.4 - 5.0
27/02:00pm 15.7 10.7 9.4 66 3.2 SSE 26 32 14 17 1027.5 1027.5 5.0
27/01:30pm 16.1 12.0 8.6 61 3.8 SE 20 24 11 13 1027.6 - 5.0
27/01:00pm 16.1 12.1 8.1 59 4.0 SE 19 24 10 13 1027.7 1027.7 5.0
27/12:30pm 15.9 12.4 10.9 72 2.7 SW 20 28 11 15 1028.0 - 5.0
27/12:00pm 15.7 12.3 11.1 74 2.4 SSW 20 30 11 16 1028.2 1028.2 5.0
27/11:30am 15.2 11.7 11.0 76 2.2 S 20 26 11 14 1028.5 - 5.0
27/11:00am 14.3 10.0 10.7 79 1.9 SSW 24 32 13 17 1028.7 1028.7 5.0
27/10:30am 15.1 12.0 12.1 82 1.6 SW 20 28 11 15 1028.8 - 5.0
27/10:00am 14.5 10.6 10.7 78 2.0 SW 22 26 12 14 1028.7 1028.7 4.8
27/09:30am 13.9 9.8 10.1 78 2.0 SW 22 26 12 14 1028.7 - 0.0
27/09:00am 14.2 10.1 10.2 77 2.1 SW 22 26 12 14 1028.7 1028.7 2.0
27/08:30am 14.4 11.5 9.6 73 2.5 SSW 15 19 8 10 1028.6 - 2.0
27/08:00am 15.1 11.0 8.6 65 3.3 SE 20 26 11 14 1028.3 1028.3 2.0
27/07:30am 14.7 10.2 8.4 66 3.2 SE 22 26 12 14 1028.1 - 2.0
27/07:00am 14.4 9.4 8.1 66 3.1 ESE 24 32 13 17 1027.9 1027.9 2.0
27/06:30am 14.1 9.1 8.1 67 3.0 ESE 24 30 13 16 1027.7 - 2.0
27/06:00am 13.9 8.1 8.1 68 2.9 ESE 28 33 15 18 1027.7 1027.7 2.0
27/05:30am 14.0 8.5 9.2 73 2.4 ESE 28 33 15 18 1027.5 - 2.0
27/05:00am 13.9 9.2 9.3 74 2.3 SE 24 30 13 16 1027.6 1027.6 2.0
27/04:30am 14.0 9.4 9.6 75 2.3 ESE 24 30 13 16 1027.4 - 2.0
27/04:00am 14.0 9.4 9.6 75 2.2 ESE 24 28 13 15 1027.4 1027.4 2.0
27/03:30am 14.0 9.7 9.4 74 2.4 ESE 22 26 12 14 1027.5 - 2.0
27/03:00am 14.2 10.4 9.0 71 2.6 ESE 19 22 10 12 1027.6 1027.6 2.0
27/02:30am 14.3 10.9 9.3 72 2.6 ESE 17 22 9 12 1027.8 - 2.0
27/02:00am 14.5 10.1 8.9 69 2.8 E 22 26 12 14 1027.9 1027.9 2.0
27/01:30am 14.5 9.3 8.9 69 2.8 E 26 32 14 17 1028.0 - 2.0
27/01:00am 14.5 9.2 9.9 74 2.4 E 28 32 15 17 1028.0 1028.0 2.0
27/12:30am 14.5 8.9 10.1 75 2.3 E 30 35 16 19 1028.1 - 2.0
27/12:00am 14.5 8.6 10.3 76 2.2 E 32 35 17 19 1028.1 1028.1 2.0
 
Date/Time
EST
Tmp

°C
App
Tmp
°C
Dew
Point
°C
Rel
Hum
%
Delta-T

°C
Wind Press
QNH
hPa
Press
MSL
hPa
Rain
since
9 am
mm
Dir
 
Spd
km/h
Gust
km/h
Spd
kts
Gust
kts
26/11:30pm 14.6 8.5 9.8 73 2.5 E 32 39 17 21 1028.2 - 2.0
26/11:00pm 14.7 8.6 10.3 75 2.3 E 33 39 18 21 1028.2 1028.2 2.0
26/10:30pm 14.7 8.6 9.9 73 2.5 ESE 32 35 17 19 1028.4 - 2.0
26/10:00pm 14.8 8.3 10.4 75 2.3 ESE 35 39 19 21 1028.4 1028.4 2.0

Latest Capital City Observations: Canberra | Sydney | Melbourne | Brisbane | Adelaide | Perth | Hobart | Darwin

Other Formats:

Comma delimited format used in spreadsheet applications
http://www.bom.gov.au/fwo/IDN60903/IDN60903.94939.axf

JavaScript Object Notation format (JSON) in row-major order
http://www.bom.gov.au/fwo/IDN60903/IDN60903.94939.json